createdAt,value
2023-04-01T00:01:22.311Z,-1.29
2023-04-01T00:04:27.342Z,-1.35
2023-04-01T00:07:32.720Z,-1.26
2023-04-01T00:10:38.060Z,-1.20
2023-04-01T00:13:44.720Z,-1.31
2023-04-01T00:16:49.826Z,-1.34
2023-04-01T00:19:56.749Z,-1.38
2023-04-01T00:23:01.993Z,-1.41
2023-04-01T00:26:07.413Z,-1.26
2023-04-01T00:29:14.930Z,-1.13
2023-04-01T00:32:20.172Z,-1.25
2023-04-01T00:35:25.222Z,-1.27
2023-04-01T00:38:30.310Z,-1.39
2023-04-01T00:41:35.377Z,-1.47
2023-04-01T00:44:42.217Z,-1.53
2023-04-01T00:47:47.300Z,-1.56
2023-04-01T00:50:54.689Z,-1.61
2023-04-01T00:54:02.786Z,-1.35
2023-04-01T00:57:11.074Z,-1.54
2023-04-01T01:00:18.470Z,-1.39
2023-04-01T01:03:23.624Z,-1.38
2023-04-01T01:06:40.420Z,-1.36
2023-04-01T01:09:50.312Z,-1.50
2023-04-01T01:13:00.989Z,-1.53
2023-04-01T01:16:12.043Z,-1.50
2023-04-01T01:19:49.311Z,-1.61
2023-04-01T01:23:10.945Z,-1.45
2023-04-01T01:26:29.422Z,-1.59
2023-04-01T01:30:10.901Z,-1.43
2023-04-01T01:33:40.838Z,-1.43
2023-04-01T01:36:49.772Z,-1.46
2023-04-01T01:39:58.802Z,-1.55
2023-04-01T01:43:08.472Z,-1.69
2023-04-01T01:46:15.807Z,-1.79
2023-04-01T01:49:21.202Z,-1.59
2023-04-01T01:52:29.230Z,-1.74
2023-04-01T01:55:36.294Z,-1.68
2023-04-01T01:58:44.089Z,-1.59
2023-04-01T02:01:53.652Z,-1.71
2023-04-01T02:04:59.551Z,-1.61
2023-04-01T02:08:09.623Z,-1.66
2023-04-01T02:11:17.608Z,-1.63
2023-04-01T02:14:27.205Z,-1.53
2023-04-01T02:17:33.344Z,-1.56
2023-04-01T02:20:40.932Z,-1.59
2023-04-01T02:23:48.721Z,-1.71
2023-04-01T02:26:54.687Z,-1.74
2023-04-01T02:30:00.233Z,-1.75
2023-04-01T02:33:06.557Z,-1.65
2023-04-01T02:36:16.282Z,-1.76
2023-04-01T02:39:23.651Z,-1.77
2023-04-01T02:42:28.913Z,-1.73
2023-04-01T02:45:34.162Z,-1.68
2023-04-01T02:48:39.442Z,-1.74
2023-04-01T02:51:45.440Z,-1.69
2023-04-01T02:54:51.921Z,-1.73
2023-04-01T02:57:56.985Z,-1.71
2023-04-01T03:01:02.126Z,-1.70
2023-04-01T03:04:07.858Z,-1.64
2023-04-01T03:07:13.068Z,-1.66
2023-04-01T03:10:19.788Z,-1.70
2023-04-01T03:13:24.983Z,-1.91
2023-04-01T03:16:30.145Z,-1.65
2023-04-01T03:19:35.519Z,-1.68
2023-04-01T03:22:46.956Z,-1.87
2023-04-01T03:25:53.388Z,-1.83
2023-04-01T03:28:58.635Z,-1.84
2023-04-01T03:32:03.809Z,-1.76
2023-04-01T03:35:12.124Z,-1.77
2023-04-01T03:38:18.256Z,-1.82
2023-04-01T03:41:25.020Z,-1.71
2023-04-01T03:44:34.900Z,-1.73
2023-04-01T03:47:40.206Z,-1.72
2023-04-01T03:50:46.064Z,-1.74
2023-04-01T03:53:52.114Z,-1.75
2023-04-01T03:56:59.135Z,-1.64
2023-04-01T04:00:05.094Z,-1.64
2023-04-01T04:03:19.124Z,-1.53
2023-04-01T04:06:24.910Z,-1.76
2023-04-01T04:09:33.105Z,-1.64
2023-04-01T04:12:39.549Z,-1.72
2023-04-01T04:15:44.865Z,-1.93
2023-04-01T04:18:50.045Z,-1.78
2023-04-01T04:21:56.086Z,-1.78
2023-04-01T04:25:01.141Z,-1.68
2023-04-01T04:28:07.824Z,-1.88
2023-04-01T04:31:13.749Z,-1.80
2023-04-01T04:34:20.565Z,-1.82
2023-04-01T04:37:26.835Z,-1.69
2023-04-01T04:40:32.656Z,-1.65
2023-04-01T04:43:39.294Z,-1.62
2023-04-01T04:46:44.540Z,-1.58
2023-04-01T04:49:53.934Z,-1.73
2023-04-01T04:52:59.146Z,-1.62
2023-04-01T04:56:04.517Z,-1.59
2023-04-01T04:59:18.645Z,-1.66
2023-04-01T05:02:31.059Z,-1.58
2023-04-01T05:05:36.281Z,-1.61
2023-04-01T05:08:43.745Z,-1.57
2023-04-01T05:11:48.943Z,-1.56
2023-04-01T05:14:55.410Z,-1.51
2023-04-01T05:18:00.478Z,-1.46
2023-04-01T05:21:05.828Z,-1.38
2023-04-01T05:24:11.480Z,-1.36
2023-04-01T05:27:17.277Z,-1.35
2023-04-01T05:30:24.401Z,-1.32
2023-04-01T05:33:39.647Z,-1.10
2023-04-01T05:36:45.434Z,-0.97
2023-04-01T05:39:50.674Z,-1.06
2023-04-01T05:42:55.871Z,-1.09
2023-04-01T05:46:02.420Z,-1.02
2023-04-01T05:49:15.252Z,-0.94
2023-04-01T05:52:21.196Z,-0.71
2023-04-01T05:55:26.271Z,-0.71
2023-04-01T05:58:31.495Z,-0.57
2023-04-01T06:01:38.002Z,-0.50
2023-04-01T06:04:43.587Z,-0.42
2023-04-01T06:07:48.916Z,-0.41
2023-04-01T06:11:02.709Z,-0.40
2023-04-01T06:14:19.190Z,-0.26
2023-04-01T06:17:40.464Z,-0.11
2023-04-01T06:20:51.194Z,-0.10
2023-04-01T06:24:05.525Z,-0.10
2023-04-01T06:27:18.964Z,-0.00
2023-04-01T06:30:41.007Z,0.13
2023-04-01T06:33:58.268Z,0.26
2023-04-01T06:37:21.147Z,0.30
2023-04-01T06:40:50.840Z,0.54
2023-04-01T06:44:01.918Z,0.77
2023-04-01T06:47:39.751Z,1.00
2023-04-01T06:51:13.302Z,1.37
2023-04-01T06:54:39.111Z,1.24
2023-04-01T06:58:16.275Z,1.41
2023-04-01T07:01:25.074Z,1.76
2023-04-01T07:04:33.392Z,1.94
2023-04-01T07:07:42.548Z,1.98
2023-04-01T07:10:54.604Z,1.99
2023-04-01T07:14:24.224Z,2.03
2023-04-01T07:17:32.758Z,1.88
2023-04-01T07:20:39.876Z,2.07
2023-04-01T07:23:48.696Z,2.00
2023-04-01T07:27:17.809Z,1.93
2023-04-01T07:30:25.217Z,2.06
2023-04-01T07:33:38.348Z,1.85
2023-04-01T07:36:47.379Z,1.93
2023-04-01T07:40:01.194Z,2.08
2023-04-01T07:43:27.734Z,2.03
2023-04-01T07:47:08.950Z,2.21
2023-04-01T07:50:20.886Z,2.10
2023-04-01T07:53:32.894Z,2.04
2023-04-01T07:56:45.697Z,2.16
2023-04-01T08:00:01.853Z,2.25
2023-04-01T08:03:36.467Z,2.23
2023-04-01T08:06:49.778Z,2.14
2023-04-01T08:10:01.276Z,2.31
2023-04-01T08:13:34.537Z,2.32
2023-04-01T08:17:06.933Z,2.41
2023-04-01T08:20:28.446Z,2.42
2023-04-01T08:23:36.164Z,2.32
2023-04-01T08:26:48.712Z,2.25
2023-04-01T08:29:59.927Z,2.51
2023-04-01T08:33:11.779Z,2.50
2023-04-01T08:36:20.910Z,2.60
2023-04-01T08:39:37.063Z,2.45
2023-04-01T08:42:57.009Z,2.58
2023-04-01T08:46:22.427Z,2.58
2023-04-01T08:49:54.567Z,2.57
2023-04-01T08:53:27.309Z,2.58
2023-04-01T08:56:36.277Z,2.71
2023-04-01T08:59:57.684Z,2.74
2023-04-01T09:03:37.585Z,2.81
2023-04-01T09:06:53.280Z,2.85
2023-04-01T09:10:21.269Z,2.96
2023-04-01T09:14:00.845Z,3.03
2023-04-01T09:17:23.769Z,3.14
2023-04-01T09:20:50.518Z,3.17
2023-04-01T09:24:31.723Z,3.27
2023-04-01T09:27:43.109Z,3.36
2023-04-01T09:31:26.236Z,3.47
2023-04-01T09:35:13.278Z,3.48
2023-04-01T09:38:32.940Z,3.61
2023-04-01T09:41:42.188Z,3.75
2023-04-01T09:45:06.600Z,3.76
2023-04-01T09:48:32.793Z,3.91
2023-04-01T09:51:46.107Z,4.04
2023-04-01T09:55:07.834Z,4.10
2023-04-01T09:58:35.065Z,4.23
2023-04-01T10:02:44.692Z,4.30
2023-04-01T10:06:45.576Z,4.40
2023-04-01T10:10:24.898Z,4.54
2023-04-01T10:14:09.712Z,4.60
2023-04-01T10:17:33.573Z,4.63
2023-04-01T10:20:57.959Z,4.74
2023-04-01T10:24:49.990Z,4.81
2023-04-01T10:28:42.723Z,4.97
2023-04-01T10:32:23.513Z,4.98
2023-04-01T10:36:06.584Z,4.96
2023-04-01T10:39:35.909Z,5.02
2023-04-01T10:43:25.818Z,5.08
2023-04-01T10:47:05.269Z,5.17
2023-04-01T10:50:57.599Z,5.11
2023-04-01T10:54:24.102Z,5.22
2023-04-01T10:58:10.927Z,5.41
2023-04-01T11:02:14.857Z,5.48
2023-04-01T11:06:17.741Z,5.50
2023-04-01T11:09:57.435Z,5.46
2023-04-01T11:13:32.874Z,5.41
2023-04-01T11:17:05.496Z,5.50
2023-04-01T11:20:31.179Z,5.54
2023-04-01T11:24:06.099Z,5.60
2023-04-01T11:27:32.052Z,5.64
2023-04-01T11:30:55.409Z,5.75
2023-04-01T11:34:07.236Z,5.84
2023-04-01T11:37:23.516Z,5.87
2023-04-01T11:41:05.260Z,5.79
2023-04-01T11:44:20.623Z,5.80
2023-04-01T11:47:51.510Z,5.97
2023-04-01T11:51:07.364Z,5.84
2023-04-01T11:54:36.659Z,6.01
2023-04-01T11:57:54.129Z,5.98
2023-04-01T12:01:23.195Z,5.99
2023-04-01T12:04:57.228Z,6.00
2023-04-01T12:08:11.389Z,5.90
2023-04-01T12:11:20.249Z,5.90
2023-04-01T12:14:30.148Z,5.87
2023-04-01T12:17:42.139Z,5.87
2023-04-01T12:20:54.301Z,5.91
2023-04-01T12:24:28.414Z,5.82
2023-04-01T12:27:41.421Z,5.93
2023-04-01T12:31:05.394Z,5.94
2023-04-01T12:34:46.974Z,5.93
2023-04-01T12:38:06.495Z,5.95
2023-04-01T12:41:16.907Z,5.88
2023-04-01T12:45:00.457Z,5.85
2023-04-01T12:48:34.847Z,5.79
2023-04-01T12:52:08.729Z,5.89
2023-04-01T12:55:42.433Z,5.84
2023-04-01T12:59:18.367Z,5.75
2023-04-01T13:02:32.920Z,5.86
2023-04-01T13:06:29.102Z,5.82
2023-04-01T13:09:41.717Z,5.73
2023-04-01T13:13:07.842Z,5.83
2023-04-01T13:16:16.441Z,5.65
2023-04-01T13:19:27.141Z,5.75
2023-04-01T13:22:41.247Z,5.64
2023-04-01T13:25:56.614Z,5.75
2023-04-01T13:29:13.791Z,5.80
2023-04-01T13:32:40.893Z,5.78
2023-04-01T13:35:53.651Z,5.83
2023-04-01T13:39:28.080Z,5.69
2023-04-01T13:42:36.337Z,5.66
2023-04-01T13:46:00.385Z,5.66
2023-04-01T13:49:20.250Z,5.71
2023-04-01T13:53:01.375Z,5.75
2023-04-01T13:56:15.583Z,5.78
2023-04-01T13:59:42.192Z,5.68
2023-04-01T14:03:16.429Z,5.52
2023-04-01T14:06:31.717Z,5.59
2023-04-01T14:09:48.192Z,5.48
2023-04-01T14:13:00.699Z,5.36
2023-04-01T14:16:23.388Z,5.37
2023-04-01T14:19:52.438Z,5.34
2023-04-01T14:23:13.693Z,5.43
2023-04-01T14:26:49.387Z,5.43
2023-04-01T14:30:04.457Z,5.57
2023-04-01T14:33:23.585Z,5.51
2023-04-01T14:36:43.868Z,5.42
2023-04-01T14:40:18.410Z,5.16
2023-04-01T14:43:40.986Z,5.13
2023-04-01T14:47:10.245Z,5.15
2023-04-01T14:50:17.731Z,5.15
2023-04-01T14:53:30.573Z,5.02
2023-04-01T14:56:41.336Z,4.86
2023-04-01T14:59:51.269Z,4.94
2023-04-01T15:03:04.665Z,4.98
2023-04-01T15:06:45.964Z,4.98
2023-04-01T15:09:58.388Z,4.87
2023-04-01T15:13:12.744Z,4.73
2023-04-01T15:16:24.154Z,4.71
2023-04-01T15:19:39.732Z,4.72
2023-04-01T15:23:14.236Z,4.63
2023-04-01T15:26:38.514Z,4.61
2023-04-01T15:30:09.186Z,4.59
2023-04-01T15:33:22.127Z,4.62
2023-04-01T15:36:34.355Z,4.54
2023-04-01T15:39:49.092Z,4.48
2023-04-01T15:43:12.983Z,4.48
2023-04-01T15:46:55.397Z,4.51
2023-04-01T15:50:19.447Z,4.45
2023-04-01T15:53:57.291Z,4.36
2023-04-01T15:57:22.530Z,4.29
2023-04-01T16:00:33.565Z,4.23
2023-04-01T16:03:42.489Z,4.24
2023-04-01T16:07:01.098Z,4.22
2023-04-01T16:10:25.666Z,4.12
2023-04-01T16:13:42.662Z,4.02
2023-04-01T16:17:00.824Z,4.03
2023-04-01T16:20:17.680Z,3.97
2023-04-01T16:23:27.304Z,3.97
2023-04-01T16:26:39.643Z,3.98
2023-04-01T16:29:49.233Z,4.06
2023-04-01T16:32:59.669Z,3.96
2023-04-01T16:36:12.314Z,3.96
2023-04-01T16:39:30.244Z,3.87
2023-04-01T16:42:45.315Z,3.76
2023-04-01T16:45:59.887Z,3.74
2023-04-01T16:49:31.857Z,3.63
2023-04-01T16:52:50.648Z,3.69
2023-04-01T16:56:01.840Z,3.75
2023-04-01T16:59:16.558Z,3.65
2023-04-01T17:02:26.285Z,3.56
2023-04-01T17:05:44.730Z,3.47
2023-04-01T17:09:24.833Z,3.37
2023-04-01T17:12:35.953Z,3.30
2023-04-01T17:15:44.238Z,3.20
2023-04-01T17:18:56.547Z,3.07
2023-04-01T17:22:10.442Z,3.08
2023-04-01T17:25:35.508Z,3.04
2023-04-01T17:28:49.384Z,2.97
2023-04-01T17:32:04.537Z,2.80
2023-04-01T17:35:14.023Z,2.80
2023-04-01T17:38:37.103Z,2.77
2023-04-01T17:41:49.373Z,2.74
2023-04-01T17:45:00.169Z,2.66
2023-04-01T17:48:16.383Z,2.68
2023-04-01T17:51:27.417Z,2.51
2023-04-01T17:54:39.638Z,2.47
2023-04-01T17:57:51.694Z,2.44
2023-04-01T18:01:16.497Z,2.54
2023-04-01T18:04:32.413Z,2.43
2023-04-01T18:08:14.844Z,2.46
2023-04-01T18:11:28.206Z,2.37
2023-04-01T18:15:17.780Z,2.38
2023-04-01T18:18:38.225Z,2.34
2023-04-01T18:21:48.240Z,2.09
2023-04-01T18:25:00.878Z,2.13
2023-04-01T18:28:21.506Z,2.10
2023-04-01T18:31:28.112Z,2.04
2023-04-01T18:34:43.092Z,2.00
2023-04-01T18:37:51.646Z,1.94
2023-04-01T18:41:09.526Z,1.94
2023-04-01T18:44:28.152Z,1.98
2023-04-01T18:47:44.843Z,1.82
2023-04-01T18:50:55.528Z,1.75
2023-04-01T18:54:02.848Z,1.66
2023-04-01T18:57:13.437Z,1.65
2023-04-01T19:00:24.436Z,1.62
2023-04-01T19:03:34.465Z,1.55
2023-04-01T19:06:48.616Z,1.50
2023-04-01T19:09:54.330Z,1.54
2023-04-01T19:13:11.529Z,1.43
2023-04-01T19:16:28.964Z,1.41
2023-04-01T19:19:53.682Z,1.30
2023-04-01T19:23:21.392Z,1.35
2023-04-01T19:26:31.164Z,1.22
2023-04-01T19:29:47.595Z,1.27
2023-04-01T19:32:59.567Z,1.18
2023-04-01T19:36:11.795Z,1.19
2023-04-01T19:39:29.370Z,1.22
2023-04-01T19:42:39.791Z,1.14
2023-04-01T19:45:50.568Z,1.25
2023-04-01T19:49:25.563Z,1.09
2023-04-01T19:52:34.650Z,1.12
2023-04-01T19:55:42.081Z,1.02
2023-04-01T19:58:51.216Z,1.07
2023-04-01T20:02:00.681Z,0.94
2023-04-01T20:05:29.429Z,0.90
2023-04-01T20:08:39.152Z,0.85
2023-04-01T20:11:56.130Z,0.79
2023-04-01T20:15:02.494Z,0.79
2023-04-01T20:18:18.014Z,0.76
2023-04-01T20:21:32.643Z,0.71
2023-04-01T20:24:43.642Z,0.74
2023-04-01T20:27:53.011Z,0.89
2023-04-01T20:31:27.818Z,0.76
2023-04-01T20:34:46.335Z,0.76
2023-04-01T20:37:58.812Z,0.75
2023-04-01T20:41:07.435Z,0.68
2023-04-01T20:44:14.050Z,0.50
2023-04-01T20:47:25.019Z,0.70
2023-04-01T20:50:32.212Z,0.65
2023-04-01T20:53:42.584Z,0.66
2023-04-01T20:56:57.290Z,0.55
2023-04-01T21:00:30.558Z,0.66
2023-04-01T21:03:45.019Z,0.52
2023-04-01T21:07:13.893Z,0.50
2023-04-01T21:10:37.852Z,0.66
2023-04-01T21:13:57.653Z,0.55
2023-04-01T21:17:10.058Z,0.51
2023-04-01T21:20:28.388Z,0.54
2023-04-01T21:23:49.048Z,0.53
2023-04-01T21:27:00.351Z,0.45
2023-04-01T21:30:18.653Z,0.41
2023-04-01T21:33:45.788Z,0.59
2023-04-01T21:37:01.928Z,0.43
2023-04-01T21:40:33.789Z,0.53
2023-04-01T21:44:04.050Z,0.42
2023-04-01T21:47:42.723Z,0.34
2023-04-01T21:51:08.426Z,0.40
2023-04-01T21:54:34.803Z,0.39
2023-04-01T21:58:17.158Z,0.52
2023-04-01T22:01:39.252Z,0.43
2023-04-01T22:04:59.827Z,0.30
2023-04-01T22:08:14.582Z,0.31
2023-04-01T22:11:26.045Z,0.40
2023-04-01T22:14:36.102Z,0.37
2023-04-01T22:17:47.792Z,0.42
2023-04-01T22:20:58.261Z,0.42
2023-04-01T22:24:08.484Z,0.36
2023-04-01T22:27:20.413Z,0.34
2023-04-01T22:30:27.495Z,0.29
2023-04-01T22:33:37.399Z,0.40
2023-04-01T22:36:47.746Z,0.38
2023-04-01T22:40:02.992Z,0.29
2023-04-01T22:43:11.381Z,0.29
2023-04-01T22:46:38.694Z,0.22
2023-04-01T22:49:49.550Z,0.24
2023-04-01T22:52:58.318Z,0.22
2023-04-01T22:56:07.538Z,0.25
2023-04-01T22:59:18.272Z,0.39
2023-04-01T23:02:26.484Z,0.25
2023-04-01T23:05:33.978Z,0.27
2023-04-01T23:09:18.407Z,0.33
2023-04-01T23:12:24.058Z,0.33
2023-04-01T23:15:30.322Z,0.31
2023-04-01T23:18:39.677Z,0.31
2023-04-01T23:21:48.886Z,0.27
2023-04-01T23:24:56.004Z,0.12
2023-04-01T23:28:19.350Z,0.22
2023-04-01T23:31:37.141Z,0.22
2023-04-01T23:34:42.499Z,0.23
2023-04-01T23:37:48.973Z,0.14
2023-04-01T23:40:56.227Z,0.19
2023-04-01T23:44:04.357Z,0.18
2023-04-01T23:47:11.264Z,0.12
2023-04-01T23:50:18.784Z,-0.05
2023-04-01T23:53:28.077Z,0.02
2023-04-01T23:56:41.380Z,-0.04
2023-04-01T23:59:46.509Z,0.07
